createdAt,value
2019-01-23T00:02:28.529Z,77.89
2019-01-23T00:04:59.483Z,77.44
2019-01-23T00:07:30.403Z,77.23
2019-01-23T00:10:01.297Z,77.09
2019-01-23T00:12:32.249Z,76.12
2019-01-23T00:15:03.142Z,75.98
2019-01-23T00:17:34.030Z,76.21
2019-01-23T00:20:05.635Z,75.93
2019-01-23T00:22:36.537Z,76.01
2019-01-23T00:25:07.851Z,75.87
2019-01-23T00:27:38.854Z,76.38
2019-01-23T00:30:10.010Z,76.25
2019-01-23T00:32:40.897Z,76.74
2019-01-23T00:35:12.055Z,76.90
2019-01-23T00:37:42.995Z,76.84
2019-01-23T00:40:14.183Z,76.92
2019-01-23T00:42:45.132Z,76.87
2019-01-23T00:45:17.319Z,77.14
2019-01-23T00:47:48.219Z,77.07
2019-01-23T00:50:19.267Z,77.61
2019-01-23T00:52:50.159Z,77.81
2019-01-23T00:55:21.103Z,78.00
2019-01-23T00:57:52.047Z,79.01
2019-01-23T01:00:25.658Z,79.73
2019-01-23T01:02:57.421Z,79.97
2019-01-23T01:05:28.318Z,80.35
2019-01-23T01:07:59.219Z,80.77
2019-01-23T01:10:30.197Z,80.98
2019-01-23T01:13:01.093Z,80.67
2019-01-23T01:15:32.274Z,80.56
2019-01-23T01:18:03.292Z,80.50
2019-01-23T01:20:34.194Z,80.63
2019-01-23T01:23:05.096Z,80.81
2019-01-23T01:25:36.044Z,80.83
2019-01-23T01:28:07.108Z,80.99
2019-01-23T01:30:38.010Z,80.73
2019-01-23T01:33:08.999Z,80.91
2019-01-23T01:35:40.201Z,80.84
2019-01-23T01:38:11.162Z,80.77
2019-01-23T01:40:42.157Z,81.20
2019-01-23T01:43:13.054Z,81.14
2019-01-23T01:45:43.966Z,81.24
2019-01-23T01:48:14.930Z,80.92
2019-01-23T01:50:46.176Z,80.92
2019-01-23T01:53:17.164Z,80.62
2019-01-23T01:55:48.144Z,80.61
2019-01-23T01:58:19.118Z,81.38
2019-01-23T02:00:50.020Z,81.82
2019-01-23T02:03:21.034Z,81.77
2019-01-23T02:05:51.944Z,81.96
2019-01-23T02:08:23.161Z,81.98
2019-01-23T02:10:54.496Z,81.96
2019-01-23T02:13:25.408Z,81.41
2019-01-23T02:15:56.352Z,81.23
2019-01-23T02:18:27.446Z,81.13
2019-01-23T02:20:58.474Z,80.62
2019-01-23T02:23:29.379Z,80.26
2019-01-23T02:26:00.335Z,79.77
2019-01-23T02:28:31.227Z,79.88
2019-01-23T02:31:02.409Z,79.88
2019-01-23T02:33:33.331Z,80.01
2019-01-23T02:36:04.226Z,80.24
2019-01-23T02:38:35.163Z,80.34
2019-01-23T02:41:06.129Z,80.53
2019-01-23T02:43:37.029Z,80.65
2019-01-23T02:46:07.934Z,80.76
2019-01-23T02:48:38.882Z,81.00
2019-01-23T02:51:09.787Z,80.98
2019-01-23T02:53:40.978Z,80.70
2019-01-23T02:56:11.929Z,80.83
2019-01-23T02:58:42.821Z,80.99
2019-01-23T03:01:13.726Z,81.12
2019-01-23T03:03:44.665Z,80.86
2019-01-23T03:06:15.571Z,81.08
2019-01-23T03:08:46.466Z,80.81
2019-01-23T03:11:17.478Z,81.09
2019-01-23T03:13:48.525Z,81.12
2019-01-23T03:16:19.439Z,81.02
2019-01-23T03:18:50.484Z,80.85
2019-01-23T03:21:21.450Z,81.11
2019-01-23T03:23:52.549Z,81.00
2019-01-23T03:26:23.501Z,80.92
2019-01-23T03:28:54.406Z,80.91
2019-01-23T03:31:25.672Z,80.92
2019-01-23T03:33:56.714Z,80.90
2019-01-23T03:36:27.605Z,80.93
2019-01-23T03:38:58.512Z,80.80
2019-01-23T03:41:29.476Z,80.74
2019-01-23T03:44:00.747Z,80.83
2019-01-23T03:46:31.657Z,81.20
2019-01-23T03:49:02.594Z,81.63
2019-01-23T03:51:33.790Z,81.98
2019-01-23T03:54:04.994Z,82.24
2019-01-23T03:56:36.012Z,82.49
2019-01-23T03:59:07.009Z,82.62
2019-01-23T04:01:37.908Z,82.75
2019-01-23T04:04:09.056Z,82.81
2019-01-23T04:06:39.949Z,82.65
2019-01-23T04:09:11.084Z,82.43
2019-01-23T04:11:42.354Z,82.46
2019-01-23T04:14:13.570Z,82.36
2019-01-23T04:16:44.457Z,82.16
2019-01-23T04:19:15.412Z,82.28
2019-01-23T04:21:46.388Z,81.99
2019-01-23T04:24:17.294Z,82.07
2019-01-23T04:26:48.540Z,82.16
2019-01-23T04:29:19.508Z,81.90
2019-01-23T04:31:50.413Z,81.84
2019-01-23T04:34:21.367Z,81.41
2019-01-23T04:36:52.268Z,81.50
2019-01-23T04:39:23.238Z,81.61
2019-01-23T04:41:54.313Z,81.41
2019-01-23T04:44:25.508Z,81.34
2019-01-23T04:46:56.402Z,81.34
2019-01-23T04:49:27.340Z,81.25
2019-01-23T04:52:05.742Z,80.98
2019-01-23T04:54:36.807Z,81.12
2019-01-23T04:57:07.748Z,81.36
2019-01-23T04:59:38.663Z,81.65
2019-01-23T05:02:09.606Z,81.53
2019-01-23T05:04:40.584Z,81.56
2019-01-23T05:07:11.491Z,81.35
2019-01-23T05:09:42.437Z,81.57
2019-01-23T05:12:13.352Z,81.64
2019-01-23T05:14:44.852Z,81.29
2019-01-23T05:17:15.801Z,81.44
2019-01-23T05:19:46.700Z,81.67
2019-01-23T05:22:17.650Z,81.83
2019-01-23T05:24:48.904Z,81.78
2019-01-23T05:27:19.967Z,81.55
2019-01-23T05:29:55.055Z,81.60
2019-01-23T05:32:23.531Z,81.60
2019-01-23T05:34:55.079Z,81.54
2019-01-23T05:37:26.028Z,81.48
2019-01-23T05:39:57.016Z,81.20
2019-01-23T05:42:28.071Z,81.32
2019-01-23T05:44:59.218Z,81.33
2019-01-23T05:47:30.396Z,81.29
2019-01-23T05:50:01.296Z,81.10
2019-01-23T05:52:32.258Z,80.69
2019-01-23T05:55:03.752Z,80.66
2019-01-23T05:57:34.646Z,80.86
2019-01-23T06:00:08.558Z,81.05
2019-01-23T06:02:39.747Z,80.95
2019-01-23T06:05:11.674Z,80.79
2019-01-23T06:07:42.624Z,80.83
2019-01-23T06:10:14.147Z,80.78
2019-01-23T06:12:45.346Z,80.92
2019-01-23T06:15:16.701Z,80.75
2019-01-23T06:17:47.677Z,81.27
2019-01-23T06:20:20.286Z,81.40
2019-01-23T06:22:51.849Z,81.11
2019-01-23T06:25:22.864Z,80.83
2019-01-23T06:27:53.756Z,80.94
2019-01-23T06:30:26.927Z,80.75
2019-01-23T06:32:58.137Z,80.77
2019-01-23T06:35:29.385Z,80.01
2019-01-23T06:38:00.371Z,80.05
2019-01-23T06:40:32.398Z,80.39
2019-01-23T06:43:03.343Z,80.45
2019-01-23T06:45:34.656Z,80.23
2019-01-23T06:48:05.673Z,80.38
2019-01-23T06:50:36.569Z,80.45
2019-01-23T06:53:13.823Z,81.55
2019-01-23T06:55:40.421Z,82.34
2019-01-23T06:58:11.680Z,82.35
2019-01-23T07:00:42.967Z,82.77
2019-01-23T07:03:13.915Z,83.03
2019-01-23T07:05:44.879Z,83.71
2019-01-23T07:08:15.785Z,83.77
2019-01-23T07:10:46.697Z,83.63
2019-01-23T07:13:17.642Z,84.14
2019-01-23T07:15:48.566Z,84.52
2019-01-23T07:18:19.491Z,84.99
2019-01-23T07:20:50.723Z,85.04
2019-01-23T07:23:21.705Z,85.05
2019-01-23T07:25:52.606Z,85.04
2019-01-23T07:28:23.535Z,84.64
2019-01-23T07:30:54.444Z,84.01
2019-01-23T07:33:25.324Z,83.72
2019-01-23T07:35:56.272Z,83.94
2019-01-23T07:38:27.184Z,83.82
2019-01-23T07:40:58.167Z,83.56
2019-01-23T07:43:29.123Z,83.02
2019-01-23T07:46:00.434Z,82.67
2019-01-23T07:48:31.462Z,82.59
2019-01-23T07:51:02.416Z,82.74
2019-01-23T07:53:33.610Z,82.47
2019-01-23T07:56:04.607Z,82.82
2019-01-23T07:58:35.566Z,82.68
2019-01-23T08:01:06.487Z,82.42
2019-01-23T08:03:37.692Z,82.58
2019-01-23T08:06:08.684Z,82.67
2019-01-23T08:08:39.582Z,82.63
2019-01-23T08:11:10.501Z,83.04
2019-01-23T08:13:41.518Z,82.93
2019-01-23T08:16:12.499Z,83.01
2019-01-23T08:18:43.407Z,82.74
2019-01-23T08:21:14.484Z,82.78
2019-01-23T08:23:45.697Z,82.50
2019-01-23T08:26:17.020Z,81.67
2019-01-23T08:28:47.954Z,81.28
2019-01-23T08:31:18.903Z,80.83
2019-01-23T08:33:49.933Z,80.76
2019-01-23T08:36:20.867Z,80.20
2019-01-23T08:39:10.675Z,79.61
2019-01-23T08:41:41.887Z,78.89
2019-01-23T08:44:12.822Z,78.79
2019-01-23T08:46:43.776Z,77.84
2019-01-23T08:49:15.080Z,78.47
2019-01-23T08:51:46.323Z,78.97
2019-01-23T08:54:17.285Z,78.50
2019-01-23T08:56:48.185Z,77.73
2019-01-23T08:59:19.095Z,77.91
2019-01-23T09:01:50.346Z,77.45
2019-01-23T09:04:21.351Z,76.74
2019-01-23T09:06:53.599Z,77.11
2019-01-23T09:09:24.909Z,78.12
2019-01-23T09:11:55.856Z,77.34
2019-01-23T09:14:26.937Z,77.54
2019-01-23T09:16:57.846Z,78.48
2019-01-23T09:19:28.758Z,78.45
2019-01-23T09:22:00.014Z,78.87
2019-01-23T09:24:30.956Z,79.18
2019-01-23T09:27:01.882Z,78.61
2019-01-23T09:29:32.839Z,78.73
2019-01-23T09:33:14.000Z,79.16
2019-01-23T09:36:21.621Z,79.41
2019-01-23T09:39:44.776Z,79.48
2019-01-23T09:43:05.978Z,79.41
2019-01-23T09:46:42.071Z,78.63
2019-01-23T09:49:47.683Z,78.31
2019-01-23T09:53:12.100Z,77.93
2019-01-23T09:55:43.556Z,76.83
2019-01-23T09:58:14.575Z,76.64
2019-01-23T10:00:45.590Z,76.61
2019-01-23T10:03:22.805Z,75.77
2019-01-23T10:05:49.471Z,75.37
2019-01-23T10:08:20.445Z,74.14
2019-01-23T10:10:51.407Z,74.64
2019-01-23T10:13:22.355Z,75.37
2019-01-23T10:16:13.565Z,75.60
2019-01-23T10:18:44.563Z,74.37
2019-01-23T10:21:16.288Z,74.53
2019-01-23T10:23:47.287Z,75.67
2019-01-23T10:26:18.228Z,75.37
2019-01-23T10:28:49.190Z,74.85
2019-01-23T10:31:20.173Z,75.23
2019-01-23T10:33:51.104Z,74.31
2019-01-23T10:36:22.074Z,74.14
2019-01-23T10:38:53.340Z,73.67
2019-01-23T10:41:24.310Z,73.52
2019-01-23T10:43:56.652Z,74.45
2019-01-23T10:46:27.645Z,73.27
2019-01-23T10:48:58.602Z,73.74
2019-01-23T10:51:29.561Z,73.89
2019-01-23T10:54:00.591Z,73.14
2019-01-23T10:56:31.573Z,72.94
2019-01-23T10:59:02.820Z,72.07
2019-01-23T11:01:34.135Z,71.67
2019-01-23T11:04:05.351Z,70.81
2019-01-23T11:06:36.357Z,72.42
2019-01-23T11:09:10.026Z,72.26
2019-01-23T11:11:40.989Z,71.42
2019-01-23T11:14:11.904Z,72.75
2019-01-23T11:16:42.956Z,72.71
2019-01-23T11:19:13.894Z,72.81
2019-01-23T11:21:45.148Z,73.79
2019-01-23T11:24:16.407Z,73.79
2019-01-23T11:26:47.326Z,73.90
2019-01-23T11:29:18.243Z,74.26
2019-01-23T11:31:49.317Z,73.41
2019-01-23T11:34:20.217Z,73.27
2019-01-23T11:36:51.445Z,73.03
2019-01-23T11:39:22.625Z,73.15
2019-01-23T11:41:53.652Z,72.47
2019-01-23T11:44:24.581Z,72.66
2019-01-23T11:46:55.653Z,73.18
2019-01-23T11:49:26.616Z,72.17
2019-01-23T11:51:57.575Z,71.56
2019-01-23T11:54:28.765Z,72.61
2019-01-23T11:56:59.667Z,73.16
2019-01-23T11:59:30.661Z,72.98
2019-01-23T12:02:01.779Z,72.41
2019-01-23T12:04:32.810Z,72.13
2019-01-23T12:07:03.736Z,73.27
2019-01-23T12:09:34.711Z,73.31
2019-01-23T12:12:05.748Z,73.39
2019-01-23T12:14:37.062Z,73.26
2019-01-23T12:17:08.039Z,73.42
2019-01-23T12:19:38.993Z,72.30
2019-01-23T12:22:10.134Z,72.85
2019-01-23T12:24:41.097Z,72.65
2019-01-23T12:27:12.370Z,72.53
2019-01-23T12:29:43.302Z,73.20
2019-01-23T12:32:14.579Z,73.77
2019-01-23T12:34:45.529Z,74.27
2019-01-23T12:37:16.474Z,73.79
2019-01-23T12:39:47.455Z,74.24
2019-01-23T12:42:18.387Z,73.55
2019-01-23T12:44:49.282Z,73.37
2019-01-23T12:47:20.272Z,73.47
2019-01-23T12:49:51.169Z,72.93
2019-01-23T12:52:22.251Z,73.56
2019-01-23T12:54:53.550Z,72.40
2019-01-23T12:57:24.501Z,72.24
2019-01-23T12:59:55.452Z,72.46
2019-01-23T13:02:26.467Z,72.63
2019-01-23T13:04:57.460Z,72.44
2019-01-23T13:07:28.654Z,72.77
2019-01-23T13:09:59.626Z,72.41
2019-01-23T13:12:31.681Z,72.42
2019-01-23T13:15:02.898Z,72.54
2019-01-23T13:17:33.927Z,73.18
2019-01-23T13:20:06.484Z,73.54
2019-01-23T13:22:37.388Z,73.44
2019-01-23T13:25:12.329Z,72.95
2019-01-23T13:27:43.532Z,72.67
2019-01-23T13:30:18.129Z,73.04
2019-01-23T13:32:49.343Z,73.16
2019-01-23T13:35:29.860Z,73.45
2019-01-23T13:38:01.038Z,73.56
2019-01-23T13:40:35.417Z,73.40
2019-01-23T13:43:08.331Z,73.92
2019-01-23T13:45:39.234Z,74.34
2019-01-23T13:48:11.816Z,73.67
2019-01-23T13:50:42.823Z,73.60
2019-01-23T13:53:16.137Z,73.81
2019-01-23T13:55:47.095Z,73.41
2019-01-23T13:58:18.654Z,73.25
2019-01-23T14:00:49.698Z,73.46
2019-01-23T14:03:36.439Z,73.44
2019-01-23T14:06:07.504Z,73.68
2019-01-23T14:08:38.447Z,73.68
2019-01-23T14:11:09.416Z,75.32
2019-01-23T14:13:40.447Z,74.95
2019-01-23T14:16:11.474Z,75.66
2019-01-23T14:18:42.390Z,75.40
2019-01-23T14:21:13.368Z,74.90
2019-01-23T14:23:44.312Z,74.42
2019-01-23T14:26:15.296Z,74.25
2019-01-23T14:28:46.289Z,74.45
2019-01-23T14:31:17.199Z,75.02
2019-01-23T14:33:48.141Z,74.90
2019-01-23T14:36:19.099Z,75.22
2019-01-23T14:38:50.040Z,75.83
2019-01-23T14:41:20.944Z,75.14
2019-01-23T14:43:51.923Z,75.30
2019-01-23T14:46:22.921Z,75.60
2019-01-23T14:48:53.854Z,76.18
2019-01-23T14:51:24.871Z,75.91
2019-01-23T14:53:55.785Z,75.23
2019-01-23T14:56:28.577Z,75.40
2019-01-23T14:58:59.592Z,74.77
2019-01-23T15:01:30.518Z,75.50
2019-01-23T15:04:01.500Z,75.68
2019-01-23T15:06:32.594Z,75.67
2019-01-23T15:09:05.313Z,76.15
2019-01-23T15:11:36.560Z,75.97
2019-01-23T15:14:07.889Z,76.39
2019-01-23T15:16:38.849Z,76.80
2019-01-23T15:19:10.100Z,77.36
2019-01-23T15:21:41.091Z,76.68
2019-01-23T15:24:12.008Z,76.62
2019-01-23T15:26:43.591Z,76.70
2019-01-23T15:29:14.524Z,76.63
2019-01-23T15:31:45.431Z,76.65
2019-01-23T15:34:16.394Z,76.46
2019-01-23T15:36:47.332Z,76.41
2019-01-23T15:39:18.373Z,75.84
2019-01-23T15:41:49.485Z,76.04
2019-01-23T15:44:20.450Z,76.28
2019-01-23T15:46:51.428Z,76.17
2019-01-23T15:49:22.747Z,75.99
2019-01-23T15:51:53.704Z,76.26
2019-01-23T15:54:24.844Z,76.05
2019-01-23T15:56:55.878Z,75.81
2019-01-23T15:59:27.181Z,75.92
2019-01-23T16:01:58.157Z,75.77
2019-01-23T16:04:29.156Z,75.95
2019-01-23T16:07:00.694Z,75.96
2019-01-23T16:09:31.609Z,75.92
2019-01-23T16:12:02.597Z,75.78
2019-01-23T16:14:33.533Z,76.27
2019-01-23T16:17:05.092Z,76.36
2019-01-23T16:19:36.349Z,76.40
2019-01-23T16:22:07.275Z,76.23
2019-01-23T16:24:38.872Z,75.93
2019-01-23T16:27:09.861Z,75.74
2019-01-23T16:29:41.083Z,76.00
2019-01-23T16:32:12.371Z,75.79
2019-01-23T16:34:43.392Z,75.43
2019-01-23T16:37:14.541Z,75.75
2019-01-23T16:39:45.527Z,75.46
2019-01-23T16:42:16.450Z,76.43
2019-01-23T16:44:47.426Z,76.09
2019-01-23T16:47:18.591Z,76.21
2019-01-23T16:49:49.542Z,76.09
2019-01-23T16:52:20.875Z,76.08
2019-01-23T16:54:51.897Z,75.90
2019-01-23T16:57:23.266Z,75.78
2019-01-23T16:59:54.963Z,75.45
2019-01-23T17:02:25.955Z,75.29
2019-01-23T17:04:56.971Z,75.06
2019-01-23T17:07:29.020Z,74.10
2019-01-23T17:09:59.956Z,74.97
2019-01-23T17:12:31.068Z,74.57
2019-01-23T17:15:02.078Z,74.45
2019-01-23T17:17:33.133Z,75.23
2019-01-23T17:20:04.210Z,74.79
2019-01-23T17:22:35.161Z,74.87
2019-01-23T17:25:07.869Z,74.55
2019-01-23T17:27:39.379Z,74.75
2019-01-23T17:30:11.617Z,74.75
2019-01-23T17:32:45.716Z,74.79
2019-01-23T17:35:17.803Z,74.62
2019-01-23T17:37:49.007Z,74.65
2019-01-23T17:40:20.898Z,74.32
2019-01-23T17:43:00.780Z,73.71
2019-01-23T17:45:35.384Z,73.81
2019-01-23T17:48:09.212Z,74.12
2019-01-23T17:50:40.285Z,74.35
2019-01-23T17:53:11.722Z,74.58
2019-01-23T17:55:44.538Z,74.95
2019-01-23T17:58:16.546Z,74.51
2019-01-23T18:00:58.094Z,74.29
2019-01-23T18:03:29.397Z,74.58
2019-01-23T18:06:00.371Z,74.23
2019-01-23T18:08:31.500Z,74.72
2019-01-23T18:11:02.505Z,74.99
2019-01-23T18:13:33.852Z,75.01
2019-01-23T18:16:14.538Z,74.24
2019-01-23T18:18:45.620Z,74.53
2019-01-23T18:21:16.544Z,74.84
2019-01-23T18:23:50.552Z,74.69
2019-01-23T18:26:21.872Z,74.12
2019-01-23T18:28:54.246Z,73.61
2019-01-23T18:31:56.540Z,73.36
2019-01-23T18:35:24.603Z,73.60
2019-01-23T18:38:37.644Z,73.25
2019-01-23T18:42:33.755Z,73.79
2019-01-23T18:45:40.461Z,74.21
2019-01-23T18:49:26.133Z,73.24
2019-01-23T18:52:16.229Z,74.40
2019-01-23T18:54:47.807Z,74.45
2019-01-23T18:57:23.634Z,75.28
2019-01-23T18:59:59.599Z,74.79
2019-01-23T19:02:31.366Z,74.75
2019-01-23T19:05:06.038Z,74.63
2019-01-23T19:07:37.324Z,74.66
2019-01-23T19:10:13.422Z,75.15
2019-01-23T19:12:46.737Z,75.09
2019-01-23T19:15:20.983Z,74.89
2019-01-23T19:17:52.039Z,74.69
2019-01-23T19:20:23.416Z,74.83
2019-01-23T19:22:54.371Z,74.82
2019-01-23T19:25:25.722Z,74.87
2019-01-23T19:27:59.171Z,75.03
2019-01-23T19:30:30.441Z,74.78
2019-01-23T19:33:01.576Z,74.79
2019-01-23T19:35:32.912Z,75.12
2019-01-23T19:38:05.624Z,75.66
2019-01-23T19:40:36.605Z,75.41
2019-01-23T19:43:08.292Z,75.35
2019-01-23T19:45:39.237Z,74.95
2019-01-23T19:48:11.944Z,75.46
2019-01-23T19:50:42.989Z,75.45
2019-01-23T19:53:15.951Z,75.78
2019-01-23T19:55:47.244Z,75.94
2019-01-23T19:58:18.245Z,76.30
2019-01-23T20:00:49.571Z,76.51
2019-01-23T20:03:20.844Z,76.33
2019-01-23T20:05:51.935Z,76.76
2019-01-23T20:08:23.213Z,76.34
2019-01-23T20:10:54.132Z,76.66
2019-01-23T20:13:25.116Z,76.01
2019-01-23T20:15:56.090Z,76.18
2019-01-23T20:18:27.599Z,76.25
2019-01-23T20:20:58.704Z,75.92
2019-01-23T20:23:29.754Z,75.86
2019-01-23T20:26:01.406Z,76.13
2019-01-23T20:28:32.392Z,76.49
2019-01-23T20:31:03.363Z,77.00
2019-01-23T20:33:34.679Z,77.16
2019-01-23T20:36:05.910Z,77.01
2019-01-23T20:38:36.876Z,77.52
2019-01-23T20:41:07.868Z,77.79
2019-01-23T20:43:39.554Z,77.26
2019-01-23T20:46:10.862Z,77.26
2019-01-23T20:48:43.045Z,76.47
2019-01-23T20:51:14.077Z,76.62
2019-01-23T20:53:45.351Z,76.59
2019-01-23T20:56:16.949Z,76.87
2019-01-23T20:58:48.235Z,76.94
2019-01-23T21:01:19.205Z,76.72
2019-01-23T21:03:50.201Z,76.96
2019-01-23T21:06:21.512Z,77.15
2019-01-23T21:08:52.473Z,76.72
2019-01-23T21:11:23.558Z,76.35
2019-01-23T21:13:54.546Z,76.83
2019-01-23T21:16:25.570Z,77.40
2019-01-23T21:18:56.574Z,77.09
2019-01-23T21:21:28.489Z,77.01
2019-01-23T21:23:59.426Z,76.84
2019-01-23T21:26:30.491Z,76.11
2019-01-23T21:29:01.450Z,76.55
2019-01-23T21:31:32.430Z,76.54
2019-01-23T21:34:03.406Z,77.08
2019-01-23T21:36:34.432Z,76.84
2019-01-23T21:39:08.897Z,76.61
2019-01-23T21:41:39.923Z,76.47
2019-01-23T21:44:10.850Z,76.92
2019-01-23T21:46:41.820Z,76.52
2019-01-23T21:49:13.066Z,76.86
2019-01-23T21:51:44.086Z,76.56
2019-01-23T21:54:15.041Z,77.49
2019-01-23T21:56:46.276Z,77.74
2019-01-23T21:59:17.301Z,78.09
2019-01-23T22:01:48.201Z,78.04
2019-01-23T22:04:19.186Z,78.17
2019-01-23T22:06:50.107Z,78.37
2019-01-23T22:09:21.062Z,78.35
2019-01-23T22:11:52.016Z,78.44
2019-01-23T22:14:22.956Z,78.53
2019-01-23T22:16:54.219Z,78.38
2019-01-23T22:19:25.202Z,78.34
2019-01-23T22:21:56.158Z,78.26
2019-01-23T22:24:27.224Z,78.50
2019-01-23T22:26:58.199Z,78.35
2019-01-23T22:29:29.155Z,78.33
2019-01-23T22:32:00.376Z,77.25
2019-01-23T22:34:31.717Z,77.76
2019-01-23T22:37:02.922Z,77.45
2019-01-23T22:39:33.870Z,77.65
2019-01-23T22:42:05.221Z,78.51
2019-01-23T22:44:36.756Z,78.48
2019-01-23T22:47:07.903Z,78.52
2019-01-23T22:49:39.229Z,78.51
2019-01-23T22:52:10.139Z,78.69
2019-01-23T22:54:41.148Z,78.68
2019-01-23T22:57:12.091Z,78.35
2019-01-23T22:59:43.051Z,77.82
2019-01-23T23:02:14.359Z,78.60
2019-01-23T23:04:45.380Z,78.09
2019-01-23T23:07:16.594Z,79.09
2019-01-23T23:09:47.526Z,79.97
2019-01-23T23:12:18.489Z,80.00
2019-01-23T23:14:49.438Z,80.21
2019-01-23T23:17:20.381Z,79.87
2019-01-23T23:19:51.356Z,79.69
2019-01-23T23:22:22.305Z,79.74
2019-01-23T23:24:53.261Z,79.89
2019-01-23T23:27:24.186Z,80.06
2019-01-23T23:29:55.108Z,79.91
2019-01-23T23:32:26.117Z,79.56
2019-01-23T23:34:57.094Z,79.44
2019-01-23T23:37:28.116Z,80.07
2019-01-23T23:39:59.239Z,80.26
2019-01-23T23:42:30.278Z,80.48
2019-01-23T23:47:32.188Z,80.63
2019-01-23T23:50:03.130Z,80.23
2019-01-23T23:52:34.114Z,80.24
2019-01-23T23:55:05.640Z,80.29
2019-01-23T23:57:36.620Z,80.39
